Portada
METAR-TAF:

METAR-TAF

Aeropuertos :

Cazaux, Francia

latitud: 44-32N, longitud: 001-08W, altitud: 25 m

Observación

El informe se hizo hace 21 minutos, a las 03:00 UTC
Viento calma
Temperatura 7°C
Humedad 93%
Presión 1033 hPa
Visibilidad: 4300 m
Nubes dispersas a una altura de 2400 ft
Cielo nuboso a una altura de 3100 ft
Cielo cubierto a una altura de 4400 ft
neblina

METAR: LFBC 100300Z AUTO 00000KT 4300 BR SCT024 BKN031 OVC044 07/06 Q1033

Hora: 04:21 (03:21 UTC)


TAF: falta

Observaciones y pronósticos meteorológicos de más de 4000 aeropuertos (mensajes METAR y TAF).

Los puntos amarillos y rojos representan las estaciones disponibles.

Ponga el ratón en el punto deseado para ver el nombre de la estación.

Haga clic para ver las observaciones y los pronósticos meteorológicos.

Para cambiar el mapa : haga clic en los botones verdes con una cruz de color negro para hacer un zoom, en el botón verde con un guión para alejar o en las flechas verdes para mapas adyacentes.


METAR-TAF: